createdAt,value
2019-04-21T00:00:27.551Z,1018.84
2019-04-21T00:01:26.482Z,1018.80
2019-04-21T00:02:32.017Z,1018.79
2019-04-21T00:03:34.800Z,1018.78
2019-04-21T00:04:40.765Z,1018.78
2019-04-21T00:05:45.841Z,1018.78
2019-04-21T00:06:51.086Z,1018.82
2019-04-21T00:07:45.345Z,1018.82
2019-04-21T00:09:04.281Z,1018.83
2019-04-21T00:09:53.419Z,1018.85
2019-04-21T00:10:51.540Z,1018.84
2019-04-21T00:11:49.756Z,1018.86
2019-04-21T00:12:41.855Z,1018.89
2019-04-21T00:13:42.669Z,1018.83
2019-04-21T00:14:39.616Z,1018.88
2019-04-21T00:15:33.172Z,1018.91
2019-04-21T00:16:36.919Z,1018.88
2019-04-21T00:17:27.047Z,1018.91
2019-04-21T00:18:41.838Z,1018.90
2019-04-21T00:19:29.823Z,1018.90
2019-04-21T00:20:33.136Z,1018.90
2019-04-21T00:21:34.399Z,1018.89
2019-04-21T00:22:38.038Z,1018.91
2019-04-21T00:23:42.430Z,1018.91
2019-04-21T00:24:41.332Z,1018.92
2019-04-21T00:25:38.767Z,1018.89
2019-04-21T00:26:45.928Z,1018.90
2019-04-21T00:27:39.623Z,1018.96
2019-04-21T00:28:53.750Z,1018.96
2019-04-21T00:29:43.135Z,1018.90
2019-04-21T00:30:44.336Z,1019.02
2019-04-21T00:31:42.247Z,1018.94
2019-04-21T00:32:39.508Z,1018.96
2019-04-21T00:33:28.855Z,1019.03
2019-04-21T00:34:25.834Z,1018.98
2019-04-21T00:35:27.990Z,1018.92
2019-04-21T00:36:37.763Z,1018.95
2019-04-21T00:37:45.150Z,1018.93
2019-04-21T00:38:59.135Z,1018.92
2019-04-21T00:40:52.091Z,1018.84
2019-04-21T00:41:50.895Z,1018.85
2019-04-21T00:42:41.587Z,1018.84
2019-04-21T00:43:42.651Z,1018.85
2019-04-21T00:44:38.097Z,1018.85
2019-04-21T00:45:39.207Z,1018.83
2019-04-21T00:46:41.276Z,1018.84
2019-04-21T00:47:38.711Z,1018.84
2019-04-21T00:48:47.597Z,1018.79
2019-04-21T00:50:01.999Z,1018.77
2019-04-21T00:51:03.971Z,1018.81
2019-04-21T00:51:54.133Z,1018.77
2019-04-21T00:53:00.506Z,1018.76
2019-04-21T00:53:51.629Z,1018.79
2019-04-21T00:55:05.822Z,1018.79
2019-04-21T00:56:08.696Z,1018.82
2019-04-21T00:56:52.630Z,1018.83
2019-04-21T00:57:53.419Z,1018.86
2019-04-21T00:58:48.030Z,1018.90
2019-04-21T00:59:46.715Z,1018.87
2019-04-21T01:00:46.263Z,1018.92
2019-04-21T01:01:47.963Z,1018.93
2019-04-21T01:02:51.078Z,1018.92
2019-04-21T01:03:51.923Z,1018.91
2019-04-21T01:04:49.666Z,1018.90
2019-04-21T01:05:52.745Z,1018.92
2019-04-21T01:06:47.950Z,1018.86
2019-04-21T01:07:48.273Z,1018.86
2019-04-21T01:08:51.369Z,1018.82
2019-04-21T01:09:43.686Z,1018.83
2019-04-21T01:10:38.406Z,1018.90
2019-04-21T01:11:51.963Z,1018.87
2019-04-21T01:12:48.986Z,1018.85
2019-04-21T01:13:51.996Z,1018.87
2019-04-21T01:14:53.798Z,1018.88
2019-04-21T01:15:51.529Z,1018.87
2019-04-21T01:17:46.055Z,1018.90
2019-04-21T01:18:42.686Z,1018.90
2019-04-21T01:19:43.909Z,1018.89
2019-04-21T01:20:34.822Z,1018.87
2019-04-21T01:21:24.288Z,1018.85
2019-04-21T01:22:24.282Z,1018.83
2019-04-21T01:23:25.582Z,1018.87
2019-04-21T01:24:30.533Z,1018.85
2019-04-21T01:25:32.157Z,1018.88
2019-04-21T01:26:39.015Z,1018.86
2019-04-21T01:27:47.881Z,1018.87
2019-04-21T01:28:39.930Z,1018.85
2019-04-21T01:29:51.452Z,1018.85
2019-04-21T01:30:44.826Z,1018.86
2019-04-21T01:31:45.972Z,1018.92
2019-04-21T01:32:49.414Z,1018.88
2019-04-21T01:33:50.592Z,1018.89
2019-04-21T01:34:45.487Z,1018.88
2019-04-21T01:35:46.829Z,1018.95
2019-04-21T01:36:45.480Z,1018.92
2019-04-21T01:37:49.487Z,1018.90
2019-04-21T01:38:52.498Z,1018.96
2019-04-21T01:39:48.231Z,1018.93
2019-04-21T01:40:44.951Z,1018.93
2019-04-21T01:41:46.221Z,1018.95
2019-04-21T01:42:45.767Z,1019.00
2019-04-21T01:43:47.772Z,1018.97
2019-04-21T01:44:46.192Z,1019.04
2019-04-21T01:45:45.972Z,1018.96
2019-04-21T01:46:40.250Z,1018.99
2019-04-21T01:47:40.940Z,1018.97
2019-04-21T01:48:39.070Z,1019.02
2019-04-21T01:49:39.521Z,1019.00
2019-04-21T01:50:43.835Z,1018.97
2019-04-21T01:52:03.090Z,1018.99
2019-04-21T01:52:50.205Z,1019.01
2019-04-21T01:53:48.876Z,1018.98
2019-04-21T01:54:48.252Z,1018.99
2019-04-21T01:55:45.647Z,1019.00
2019-04-21T01:56:44.530Z,1019.03
2019-04-21T01:57:47.096Z,1019.02
2019-04-21T01:58:36.300Z,1019.04
2019-04-21T01:59:36.658Z,1019.05
2019-04-21T02:00:39.631Z,1019.05
2019-04-21T02:01:46.074Z,1019.11
2019-04-21T02:02:53.127Z,1019.08
2019-04-21T02:04:49.993Z,1019.09
2019-04-21T02:05:55.256Z,1019.08
2019-04-21T02:06:44.381Z,1019.09
2019-04-21T02:07:44.890Z,1019.09
2019-04-21T02:08:41.493Z,1019.09
2019-04-21T02:09:44.797Z,1019.14
2019-04-21T02:10:46.111Z,1019.12
2019-04-21T02:11:47.045Z,1019.08
2019-04-21T02:12:48.824Z,1019.13
2019-04-21T02:13:53.562Z,1019.11
2019-04-21T02:14:56.276Z,1019.11
2019-04-21T02:15:48.782Z,1019.09
2019-04-21T02:16:51.050Z,1019.07
2019-04-21T02:17:47.049Z,1019.11
2019-04-21T02:18:47.840Z,1019.07
2019-04-21T02:19:44.594Z,1019.01
2019-04-21T02:20:36.890Z,1019.03
2019-04-21T02:21:38.293Z,1019.03
2019-04-21T02:23:12.799Z,1019.02
2019-04-21T02:24:05.098Z,1019.00
2019-04-21T02:24:52.916Z,1019.02
2019-04-21T02:25:44.262Z,1019.05
2019-04-21T02:26:45.754Z,1019.07
2019-04-21T02:27:49.785Z,1019.06
2019-04-21T02:28:50.283Z,1019.03
2019-04-21T02:29:49.020Z,1019.05
2019-04-21T02:31:18.628Z,1019.07
2019-04-21T02:32:10.636Z,1019.09
2019-04-21T02:32:58.792Z,1019.11
2019-04-21T02:34:08.137Z,1019.08
2019-04-21T02:34:59.967Z,1019.07
2019-04-21T02:36:00.449Z,1019.12
2019-04-21T02:37:13.182Z,1019.12
2019-04-21T02:39:08.248Z,1019.17
2019-04-21T02:40:04.270Z,1019.18
2019-04-21T02:41:55.804Z,1019.19
2019-04-21T02:43:13.273Z,1019.24
2019-04-21T02:44:00.638Z,1019.25
2019-04-21T02:44:52.166Z,1019.24
2019-04-21T02:45:56.068Z,1019.25
2019-04-21T02:47:09.933Z,1019.27
2019-04-21T02:48:04.064Z,1019.31
2019-04-21T02:49:17.173Z,1019.30
2019-04-21T02:49:59.595Z,1019.30
2019-04-21T02:51:13.187Z,1019.33
2019-04-21T02:52:57.007Z,1019.30
2019-04-21T02:55:01.643Z,1019.27
2019-04-21T02:55:50.854Z,1019.30
2019-04-21T02:58:04.138Z,1019.29
2019-04-21T03:00:04.121Z,1019.29
2019-04-21T03:00:59.730Z,1019.31
2019-04-21T03:01:55.924Z,1019.28
2019-04-21T03:03:00.227Z,1019.28
2019-04-21T03:03:52.961Z,1019.29
2019-04-21T03:04:56.904Z,1019.33
2019-04-21T03:07:03.753Z,1019.30
2019-04-21T03:09:49.464Z,1019.30
2019-04-21T03:11:04.278Z,1019.30
2019-04-21T03:12:07.081Z,1019.33
2019-04-21T03:12:56.092Z,1019.28
2019-04-21T03:14:01.146Z,1019.32
2019-04-21T03:15:04.284Z,1019.31
2019-04-21T03:15:59.275Z,1019.32
2019-04-21T03:16:52.417Z,1019.31
2019-04-21T03:17:59.818Z,1019.31
2019-04-21T03:18:56.770Z,1019.34
2019-04-21T03:20:14.654Z,1019.33
2019-04-21T03:21:00.658Z,1019.33
2019-04-21T03:21:57.417Z,1019.35
2019-04-21T03:22:56.407Z,1019.37
2019-04-21T03:23:58.385Z,1019.41
2019-04-21T03:25:51.992Z,1019.32
2019-04-21T03:28:56.681Z,1019.31
2019-04-21T03:31:19.645Z,1019.28
2019-04-21T03:32:14.307Z,1019.32
2019-04-21T03:33:23.871Z,1019.28
2019-04-21T03:34:28.843Z,1019.28
2019-04-21T03:37:52.935Z,1019.28
2019-04-21T03:38:53.254Z,1019.33
2019-04-21T03:40:06.786Z,1019.27
2019-04-21T03:40:47.397Z,1019.35
2019-04-21T03:42:01.983Z,1019.34
2019-04-21T03:43:59.318Z,1019.35
2019-04-21T03:44:56.298Z,1019.32
2019-04-21T03:46:59.550Z,1019.36
2019-04-21T03:47:53.158Z,1019.32
2019-04-21T03:50:47.268Z,1019.37
2019-04-21T03:51:59.233Z,1019.38
2019-04-21T03:53:53.732Z,1019.36
2019-04-21T03:54:53.846Z,1019.38
2019-04-21T03:56:12.410Z,1019.35
2019-04-21T03:58:15.211Z,1019.35
2019-04-21T03:58:59.853Z,1019.35
2019-04-21T03:59:57.642Z,1019.34
2019-04-21T04:01:02.780Z,1019.36
2019-04-21T04:01:58.448Z,1019.33
2019-04-21T04:03:07.617Z,1019.40
2019-04-21T04:04:53.493Z,1019.38
2019-04-21T04:06:03.709Z,1019.40
2019-04-21T04:07:06.119Z,1019.37
2019-04-21T04:07:59.051Z,1019.35
2019-04-21T04:08:57.590Z,1019.35
2019-04-21T04:10:13.560Z,1019.35
2019-04-21T04:11:04.611Z,1019.33
2019-04-21T04:11:53.049Z,1019.35
2019-04-21T04:14:07.149Z,1019.33
2019-04-21T04:15:57.757Z,1019.31
2019-04-21T04:17:11.534Z,1019.27
2019-04-21T04:18:00.883Z,1019.31
2019-04-21T04:20:51.826Z,1019.24
2019-04-21T04:22:09.120Z,1019.22
2019-04-21T04:22:55.290Z,1019.22
2019-04-21T04:25:01.975Z,1019.13
2019-04-21T04:25:49.730Z,1019.10
2019-04-21T04:27:11.158Z,1019.15
2019-04-21T04:28:57.309Z,1019.11
2019-04-21T04:29:59.181Z,1019.10
2019-04-21T04:30:52.058Z,1019.13
2019-04-21T04:31:47.552Z,1019.14
2019-04-21T04:32:46.288Z,1019.15
2019-04-21T04:34:57.257Z,1019.15
2019-04-21T04:36:02.180Z,1019.17
2019-04-21T04:37:05.103Z,1019.16
2019-04-21T04:38:00.835Z,1019.13
2019-04-21T04:39:11.015Z,1019.14
2019-04-21T04:40:57.513Z,1019.12
2019-04-21T04:44:08.683Z,1019.12
2019-04-21T04:47:05.895Z,1019.14
2019-04-21T04:49:01.718Z,1019.13
2019-04-21T04:50:53.499Z,1019.21
2019-04-21T04:52:07.800Z,1019.15
2019-04-21T04:53:47.589Z,1019.20
2019-04-21T04:54:55.852Z,1019.21
2019-04-21T04:56:56.293Z,1019.15
2019-04-21T04:59:19.369Z,1019.16
2019-04-21T05:00:01.693Z,1019.21
2019-04-21T05:02:08.728Z,1019.20
2019-04-21T05:03:01.845Z,1019.21
2019-04-21T05:04:07.581Z,1019.22
2019-04-21T05:05:11.450Z,1019.29
2019-04-21T05:05:55.737Z,1019.27
2019-04-21T05:07:07.189Z,1019.27
2019-04-21T05:07:57.896Z,1019.29
2019-04-21T05:09:55.487Z,1019.30
2019-04-21T05:11:50.080Z,1019.37
2019-04-21T05:12:50.694Z,1019.37
2019-04-21T05:13:55.339Z,1019.35
2019-04-21T05:14:53.336Z,1019.39
2019-04-21T05:15:50.016Z,1019.41
2019-04-21T05:17:51.030Z,1019.39
2019-04-21T05:19:02.316Z,1019.38
2019-04-21T05:20:03.595Z,1019.38
2019-04-21T05:20:58.980Z,1019.42
2019-04-21T05:21:45.452Z,1019.44
2019-04-21T05:22:47.402Z,1019.42
2019-04-21T05:23:44.184Z,1019.45
2019-04-21T05:24:37.981Z,1019.43
2019-04-21T05:25:38.845Z,1019.43
2019-04-21T05:26:39.128Z,1019.46
2019-04-21T05:27:38.319Z,1019.48
2019-04-21T05:28:44.891Z,1019.47
2019-04-21T05:29:51.241Z,1019.44
2019-04-21T05:30:50.068Z,1019.44
2019-04-21T05:31:50.912Z,1019.45
2019-04-21T05:32:48.859Z,1019.46
2019-04-21T05:33:44.867Z,1019.40
2019-04-21T05:34:43.099Z,1019.39
2019-04-21T05:35:45.056Z,1019.41
2019-04-21T05:36:44.825Z,1019.40
2019-04-21T05:37:43.302Z,1019.40
2019-04-21T05:38:42.350Z,1019.39
2019-04-21T05:39:37.539Z,1019.39
2019-04-21T05:40:37.301Z,1019.37
2019-04-21T05:41:34.896Z,1019.41
2019-04-21T05:42:39.863Z,1019.39
2019-04-21T05:43:46.749Z,1019.38
2019-04-21T05:44:52.858Z,1019.38
2019-04-21T05:45:47.225Z,1019.41
2019-04-21T05:46:52.318Z,1019.37
2019-04-21T05:47:52.019Z,1019.43
2019-04-21T05:48:48.404Z,1019.41
2019-04-21T05:49:41.496Z,1019.38
2019-04-21T05:50:40.292Z,1019.35
2019-04-21T05:51:42.465Z,1019.33
2019-04-21T05:52:37.916Z,1019.40
2019-04-21T05:53:42.724Z,1019.38
2019-04-21T05:54:52.939Z,1019.35
2019-04-21T05:56:40.664Z,1019.32
2019-04-21T05:57:46.453Z,1019.32
2019-04-21T05:58:43.594Z,1019.35
2019-04-21T05:59:56.049Z,1019.30
2019-04-21T06:01:46.435Z,1019.34
2019-04-21T06:02:52.026Z,1019.36
2019-04-21T06:03:50.380Z,1019.38
2019-04-21T06:05:53.429Z,1019.38
2019-04-21T06:06:55.426Z,1019.33
2019-04-21T06:07:41.030Z,1019.36
2019-04-21T06:08:49.451Z,1019.36
2019-04-21T06:09:52.484Z,1019.33
2019-04-21T06:10:47.375Z,1019.33
2019-04-21T06:11:42.314Z,1019.31
2019-04-21T06:12:57.863Z,1019.36
2019-04-21T06:13:51.983Z,1019.34
2019-04-21T06:14:48.436Z,1019.33
2019-04-21T06:15:50.025Z,1019.30
2019-04-21T06:16:48.988Z,1019.31
2019-04-21T06:17:59.297Z,1019.34
2019-04-21T06:18:48.907Z,1019.38
2019-04-21T06:19:52.117Z,1019.37
2019-04-21T06:20:46.748Z,1019.34
2019-04-21T06:21:44.994Z,1019.35
2019-04-21T06:22:46.514Z,1019.33
2019-04-21T06:23:42.391Z,1019.34
2019-04-21T06:24:57.039Z,1019.33
2019-04-21T06:25:54.931Z,1019.36
2019-04-21T06:27:00.117Z,1019.38
2019-04-21T06:27:49.253Z,1019.38
2019-04-21T06:28:47.256Z,1019.34
2019-04-21T06:29:46.641Z,1019.35
2019-04-21T06:31:09.724Z,1019.34
2019-04-21T06:32:16.732Z,1019.32
2019-04-21T06:32:58.326Z,1019.29
2019-04-21T06:33:44.762Z,1019.23
2019-04-21T06:35:01.113Z,1019.20
2019-04-21T06:36:10.164Z,1019.20
2019-04-21T06:36:49.580Z,1019.22
2019-04-21T06:38:54.043Z,1019.16
2019-04-21T06:40:50.076Z,1019.12
2019-04-21T06:41:39.904Z,1019.17
2019-04-21T06:42:51.385Z,1019.12
2019-04-21T06:43:48.426Z,1019.12
2019-04-21T06:44:54.167Z,1019.14
2019-04-21T06:45:51.092Z,1019.09
2019-04-21T06:46:43.211Z,1019.07
2019-04-21T06:48:49.338Z,1019.03
2019-04-21T06:49:45.822Z,1019.01
2019-04-21T06:50:46.776Z,1019.01
2019-04-21T06:51:43.531Z,1018.98
2019-04-21T06:53:53.983Z,1018.98
2019-04-21T06:54:50.775Z,1019.00
2019-04-21T06:55:43.549Z,1018.97
2019-04-21T06:56:48.020Z,1018.94
2019-04-21T06:57:45.229Z,1018.92
2019-04-21T06:58:48.028Z,1018.90
2019-04-21T06:59:41.869Z,1018.91
2019-04-21T07:00:45.651Z,1018.87
2019-04-21T07:01:58.182Z,1018.95
2019-04-21T07:03:48.660Z,1018.97
2019-04-21T07:04:44.006Z,1019.00
2019-04-21T07:05:49.284Z,1018.99
2019-04-21T07:07:43.200Z,1019.05
2019-04-21T07:08:56.635Z,1019.01
2019-04-21T07:09:45.168Z,1019.06
2019-04-21T07:10:48.776Z,1019.07
2019-04-21T07:11:43.376Z,1019.05
2019-04-21T07:12:43.499Z,1019.04
2019-04-21T07:13:41.500Z,1019.08
2019-04-21T07:14:59.110Z,1019.02
2019-04-21T07:15:48.933Z,1019.02
2019-04-21T07:16:44.908Z,1019.04
2019-04-21T07:17:43.200Z,1019.03
2019-04-21T07:18:49.781Z,1019.07
2019-04-21T07:19:48.397Z,1019.06
2019-04-21T07:20:44.899Z,1019.04
2019-04-21T07:21:48.374Z,1019.07
2019-04-21T07:22:41.638Z,1019.05
2019-04-21T07:23:45.819Z,1019.03
2019-04-21T07:24:42.979Z,1019.05
2019-04-21T07:25:48.313Z,1019.10
2019-04-21T07:26:44.480Z,1019.11
2019-04-21T07:27:47.889Z,1019.13
2019-04-21T07:28:53.782Z,1019.18
2019-04-21T07:29:50.559Z,1019.17
2019-04-21T07:30:43.850Z,1019.20
2019-04-21T07:31:47.042Z,1019.22
2019-04-21T07:32:56.322Z,1019.26
2019-04-21T07:33:53.896Z,1019.27
2019-04-21T07:34:49.859Z,1019.28
2019-04-21T07:35:49.260Z,1019.23
2019-04-21T07:36:52.164Z,1019.27
2019-04-21T07:37:45.783Z,1019.28
2019-04-21T07:39:40.317Z,1019.25
2019-04-21T07:40:33.752Z,1019.24
2019-04-21T07:41:38.518Z,1019.23
2019-04-21T07:42:40.069Z,1019.18
2019-04-21T07:43:39.525Z,1019.20
2019-04-21T07:44:37.947Z,1019.17
2019-04-21T07:45:36.732Z,1019.15
2019-04-21T07:46:36.577Z,1019.15
2019-04-21T07:47:40.572Z,1019.22
2019-04-21T07:48:43.241Z,1019.18
2019-04-21T07:49:46.636Z,1019.19
2019-04-21T07:50:45.479Z,1019.21
2019-04-21T07:51:47.657Z,1019.22
2019-04-21T07:52:48.803Z,1019.23
2019-04-21T07:53:51.575Z,1019.20
2019-04-21T07:54:49.630Z,1019.20
2019-04-21T07:56:28.828Z,1019.21
2019-04-21T07:57:41.675Z,1019.22
2019-04-21T07:58:47.529Z,1019.18
2019-04-21T07:59:48.456Z,1019.18
2019-04-21T08:00:51.442Z,1019.17
2019-04-21T08:01:43.896Z,1019.13
2019-04-21T08:02:43.578Z,1019.14
2019-04-21T08:03:52.356Z,1019.16
2019-04-21T08:04:55.867Z,1019.11
2019-04-21T08:05:58.627Z,1019.15
2019-04-21T08:06:43.728Z,1019.13
2019-04-21T08:09:42.318Z,1019.16
2019-04-21T08:10:39.180Z,1019.15
2019-04-21T08:11:35.573Z,1019.15
2019-04-21T08:12:36.227Z,1019.16
2019-04-21T08:13:44.960Z,1019.18
2019-04-21T08:14:43.853Z,1019.22
2019-04-21T08:15:39.918Z,1019.19
2019-04-21T08:16:45.002Z,1019.24
2019-04-21T08:17:41.352Z,1019.18
2019-04-21T08:18:39.865Z,1019.17
2019-04-21T08:19:35.432Z,1019.17
2019-04-21T08:20:34.975Z,1019.17
2019-04-21T08:21:44.692Z,1019.18
2019-04-21T08:22:46.782Z,1019.15
2019-04-21T08:24:46.813Z,1019.13
2019-04-21T08:25:45.843Z,1019.12
2019-04-21T08:26:41.507Z,1019.13
2019-04-21T08:27:47.799Z,1019.08
2019-04-21T08:28:49.358Z,1019.07
2019-04-21T08:30:54.351Z,1019.04
2019-04-21T08:31:50.274Z,1019.02
2019-04-21T08:32:57.294Z,1019.00
2019-04-21T08:33:46.524Z,1019.02
2019-04-21T08:34:55.147Z,1019.04
2019-04-21T08:36:43.223Z,1019.04
2019-04-21T08:37:39.935Z,1019.05
2019-04-21T08:38:46.006Z,1019.09
2019-04-21T08:39:47.852Z,1019.03
2019-04-21T08:40:59.030Z,1019.09
2019-04-21T08:41:42.400Z,1019.05
2019-04-21T08:42:40.002Z,1019.05
2019-04-21T08:43:42.588Z,1018.99
2019-04-21T08:44:45.209Z,1019.03
2019-04-21T08:45:41.505Z,1019.00
2019-04-21T08:46:40.526Z,1018.98
2019-04-21T08:47:39.736Z,1018.98
2019-04-21T08:48:42.284Z,1018.98
2019-04-21T08:50:37.662Z,1018.90
2019-04-21T08:51:39.498Z,1018.90
2019-04-21T08:52:48.840Z,1018.92
2019-04-21T08:53:41.552Z,1018.90
2019-04-21T08:54:43.985Z,1018.89
2019-04-21T08:55:43.061Z,1018.93
2019-04-21T08:56:40.119Z,1018.93
2019-04-21T08:57:50.819Z,1018.98
2019-04-21T08:58:47.900Z,1018.91
2019-04-21T08:59:36.380Z,1018.92
2019-04-21T09:00:39.841Z,1018.92
2019-04-21T09:01:43.056Z,1018.90
2019-04-21T09:02:40.458Z,1018.92
2019-04-21T09:03:43.427Z,1018.92
2019-04-21T09:04:33.634Z,1018.90
2019-04-21T09:05:51.147Z,1018.92
2019-04-21T09:06:54.148Z,1018.87
2019-04-21T09:07:41.412Z,1018.86
2019-04-21T09:08:42.223Z,1018.85
2019-04-21T09:09:45.185Z,1018.83
2019-04-21T09:10:39.722Z,1018.76
2019-04-21T09:11:37.320Z,1018.76
2019-04-21T09:12:42.837Z,1018.79
2019-04-21T09:13:37.033Z,1018.81
2019-04-21T09:14:37.095Z,1018.80
2019-04-21T09:15:39.659Z,1018.78
2019-04-21T09:16:35.496Z,1018.77
2019-04-21T09:17:35.587Z,1018.79
2019-04-21T09:18:32.547Z,1018.71
2019-04-21T09:20:47.367Z,1018.73
2019-04-21T09:21:42.404Z,1018.72
2019-04-21T09:22:37.391Z,1018.68
2019-04-21T09:23:42.024Z,1018.74
2019-04-21T09:24:41.205Z,1018.65
2019-04-21T09:25:40.722Z,1018.72
2019-04-21T09:26:35.573Z,1018.70
2019-04-21T09:27:36.726Z,1018.67
2019-04-21T09:28:38.326Z,1018.68
2019-04-21T09:29:32.422Z,1018.75
2019-04-21T09:30:19.947Z,1018.74
2019-04-21T09:31:24.122Z,1018.76
2019-04-21T09:32:23.909Z,1018.76
2019-04-21T09:33:20.819Z,1018.74
2019-04-21T09:34:24.834Z,1018.69
2019-04-21T09:35:21.929Z,1018.68
2019-04-21T09:36:35.045Z,1018.68
2019-04-21T09:37:36.730Z,1018.67
2019-04-21T09:38:29.829Z,1018.66
2019-04-21T09:39:22.615Z,1018.67
2019-04-21T09:40:27.387Z,1018.63
2019-04-21T09:41:23.774Z,1018.61
2019-04-21T09:42:21.201Z,1018.63
2019-04-21T09:43:27.969Z,1018.66
2019-04-21T09:44:25.953Z,1018.61
2019-04-21T09:45:22.457Z,1018.71
2019-04-21T09:46:18.757Z,1018.69
2019-04-21T09:47:22.675Z,1018.62
2019-04-21T09:48:22.442Z,1018.61
2019-04-21T09:49:22.577Z,1018.61
2019-04-21T09:50:19.886Z,1018.54
2019-04-21T09:51:19.977Z,1018.57
2019-04-21T09:52:25.114Z,1018.56
2019-04-21T09:53:28.456Z,1018.52
2019-04-21T09:54:24.937Z,1018.50
2019-04-21T09:55:23.216Z,1018.48
2019-04-21T09:56:32.660Z,1018.48
2019-04-21T09:57:28.657Z,1018.49
2019-04-21T09:58:29.265Z,1018.37
2019-04-21T09:59:26.207Z,1018.49
2019-04-21T10:00:24.799Z,1018.54
2019-04-21T10:01:27.827Z,1018.55
2019-04-21T10:02:32.881Z,1018.42
2019-04-21T10:03:21.148Z,1018.47
2019-04-21T10:04:18.764Z,1018.46
2019-04-21T10:05:19.098Z,1018.47
2019-04-21T10:06:19.539Z,1018.52
2019-04-21T10:07:35.620Z,1018.44
2019-04-21T10:08:19.506Z,1018.41
2019-04-21T10:09:21.529Z,1018.42
2019-04-21T10:10:19.226Z,1018.45
2019-04-21T10:11:20.789Z,1018.42
2019-04-21T10:12:18.467Z,1018.42
2019-04-21T10:13:18.459Z,1018.40
2019-04-21T10:14:19.467Z,1018.44
2019-04-21T10:15:18.853Z,1018.38
2019-04-21T10:16:19.607Z,1018.38
2019-04-21T10:17:19.599Z,1018.33
2019-04-21T10:18:19.495Z,1018.32
2019-04-21T10:19:18.392Z,1018.33
2019-04-21T10:20:18.378Z,1018.29
2019-04-21T10:21:19.709Z,1018.29
2019-04-21T10:22:19.002Z,1018.30
2019-04-21T10:23:18.368Z,1018.33
2019-04-21T10:24:18.336Z,1018.30
2019-04-21T10:25:18.674Z,1018.39
2019-04-21T10:26:18.793Z,1018.38
2019-04-21T10:27:19.077Z,1018.37
2019-04-21T10:28:19.106Z,1018.32
2019-04-21T10:29:24.266Z,1018.34
2019-04-21T10:30:20.381Z,1018.31
2019-04-21T10:31:18.513Z,1018.26
2019-04-21T10:32:21.064Z,1018.29
2019-04-21T10:33:18.582Z,1018.28
2019-04-21T10:34:19.141Z,1018.21
2019-04-21T10:35:21.138Z,1018.22
2019-04-21T10:36:19.100Z,1018.25
2019-04-21T10:37:18.792Z,1018.24
2019-04-21T10:38:36.811Z,1018.24
2019-04-21T10:39:19.869Z,1018.25
2019-04-21T10:40:18.169Z,1018.18
2019-04-21T10:41:19.272Z,1018.25
2019-04-21T10:42:19.430Z,1018.23
2019-04-21T10:43:22.074Z,1018.22
2019-04-21T10:44:19.012Z,1018.24
2019-04-21T10:45:19.004Z,1018.22
2019-04-21T10:46:19.149Z,1018.25
2019-04-21T10:47:18.623Z,1018.25
2019-04-21T10:48:18.924Z,1018.18
2019-04-21T10:49:19.014Z,1018.17
2019-04-21T10:50:18.418Z,1018.18
2019-04-21T10:51:19.045Z,1018.16
2019-04-21T10:52:19.285Z,1018.20
2019-04-21T10:53:18.849Z,1018.12
2019-04-21T10:54:17.994Z,1018.14
2019-04-21T10:55:39.052Z,1018.19
2019-04-21T10:56:27.204Z,1018.21
2019-04-21T10:57:20.004Z,1018.19
2019-04-21T10:58:18.320Z,1018.19
2019-04-21T10:59:18.386Z,1018.18
2019-04-21T11:00:18.793Z,1018.14
2019-04-21T11:01:18.959Z,1018.18
2019-04-21T11:02:18.967Z,1018.19
2019-04-21T11:03:19.118Z,1018.15
2019-04-21T11:04:23.709Z,1018.11
2019-04-21T11:05:18.878Z,1018.09
2019-04-21T11:06:18.870Z,1018.11
2019-04-21T11:07:19.988Z,1018.06
2019-04-21T11:08:24.737Z,1018.01
2019-04-21T11:09:29.842Z,1018.11
2019-04-21T11:10:18.288Z,1018.10
2019-04-21T11:11:17.813Z,1018.09
2019-04-21T11:12:17.795Z,1018.08
2019-04-21T11:13:18.832Z,1018.08
2019-04-21T11:14:17.960Z,1018.06
2019-04-21T11:15:18.953Z,1018.04
2019-04-21T11:16:17.753Z,1018.14
2019-04-21T11:17:18.211Z,1018.13
2019-04-21T11:18:17.895Z,1018.11
2019-04-21T11:19:18.039Z,1018.16
2019-04-21T11:20:19.089Z,1018.17
2019-04-21T11:21:18.761Z,1018.17
2019-04-21T11:22:18.828Z,1018.13
2019-04-21T11:23:19.629Z,1018.13
2019-04-21T11:24:18.143Z,1018.12
2019-04-21T11:25:17.874Z,1018.09
2019-04-21T11:26:18.050Z,1018.10
2019-04-21T11:27:18.879Z,1018.10
2019-04-21T11:28:18.627Z,1018.02
2019-04-21T11:29:19.056Z,1018.09
2019-04-21T11:30:17.816Z,1018.09
2019-04-21T11:31:18.805Z,1018.03
2019-04-21T11:32:18.983Z,1018.10
2019-04-21T11:33:17.567Z,1018.08
2019-04-21T11:34:18.741Z,1018.05
2019-04-21T11:35:17.548Z,1018.05
2019-04-21T11:36:17.532Z,1018.00
2019-04-21T11:37:17.516Z,1018.05
2019-04-21T11:38:21.811Z,1018.02
2019-04-21T11:39:26.402Z,1017.96
2019-04-21T11:40:27.971Z,1018.01
2019-04-21T11:41:19.145Z,1017.94
2019-04-21T11:42:17.629Z,1018.00
2019-04-21T11:43:17.803Z,1018.01
2019-04-21T11:44:18.608Z,1018.01
2019-04-21T11:45:18.674Z,1017.94
2019-04-21T11:46:18.278Z,1017.93
2019-04-21T11:47:18.519Z,1017.92
2019-04-21T11:48:18.539Z,1017.95
2019-04-21T11:49:17.979Z,1017.88
2019-04-21T11:50:17.378Z,1017.87
2019-04-21T11:51:17.368Z,1017.90
2019-04-21T11:52:18.749Z,1017.93
2019-04-21T11:53:17.345Z,1017.88
2019-04-21T11:54:17.329Z,1017.86
2019-04-21T11:55:18.673Z,1017.85
2019-04-21T11:56:17.306Z,1017.78
2019-04-21T11:57:23.967Z,1017.77
2019-04-21T11:58:18.295Z,1017.79
2019-04-21T11:59:17.516Z,1017.81
2019-04-21T12:00:17.670Z,1017.80
2019-04-21T12:01:17.948Z,1017.77
2019-04-21T12:02:17.362Z,1017.77
2019-04-21T12:03:18.685Z,1017.72
2019-04-21T12:04:17.952Z,1017.71
2019-04-21T12:05:17.304Z,1017.67
2019-04-21T12:06:17.480Z,1017.70
2019-04-21T12:07:17.523Z,1017.68
2019-04-21T12:08:24.916Z,1017.67
2019-04-21T12:09:18.956Z,1017.64
2019-04-21T12:10:17.694Z,1017.65
2019-04-21T12:11:27.331Z,1017.62
2019-04-21T12:12:17.129Z,1017.66
2019-04-21T12:13:18.290Z,1017.58
2019-04-21T12:14:18.317Z,1017.58
2019-04-21T12:15:17.099Z,1017.52
2019-04-21T12:16:17.115Z,1017.55
2019-04-21T12:17:18.327Z,1017.52
2019-04-21T12:18:17.834Z,1017.51
2019-04-21T12:19:17.087Z,1017.52
2019-04-21T12:20:17.039Z,1017.54
2019-04-21T12:21:17.033Z,1017.53
2019-04-21T12:22:22.136Z,1017.53
2019-04-21T12:23:18.416Z,1017.53
2019-04-21T12:24:17.384Z,1017.47
2019-04-21T12:25:17.022Z,1017.47
2019-04-21T12:26:18.047Z,1017.47
2019-04-21T12:27:18.135Z,1017.48
2019-04-21T12:28:17.418Z,1017.41
2019-04-21T12:29:16.938Z,1017.39
2019-04-21T12:30:17.736Z,1017.34
2019-04-21T12:31:17.854Z,1017.48
2019-04-21T12:32:17.988Z,1017.45
2019-04-21T12:33:18.179Z,1017.41
2019-04-21T12:34:17.959Z,1017.42
2019-04-21T12:35:17.689Z,1017.44
2019-04-21T12:36:17.884Z,1017.42
2019-04-21T12:37:17.101Z,1017.39
2019-04-21T12:38:28.383Z,1017.36
2019-04-21T12:39:18.755Z,1017.31
2019-04-21T12:40:16.995Z,1017.30
2019-04-21T12:41:16.808Z,1017.32
2019-04-21T12:42:27.426Z,1017.32
2019-04-21T12:43:16.844Z,1017.30
2019-04-21T12:44:16.776Z,1017.33
2019-04-21T12:45:17.385Z,1017.32
2019-04-21T12:46:18.024Z,1017.30
2019-04-21T12:47:16.782Z,1017.25
2019-04-21T12:48:18.023Z,1017.27
2019-04-21T12:49:17.862Z,1017.27
2019-04-21T12:50:17.040Z,1017.29
2019-04-21T12:51:17.634Z,1017.31
2019-04-21T12:52:17.697Z,1017.27
2019-04-21T12:53:17.869Z,1017.28
2019-04-21T12:54:17.553Z,1017.30
2019-04-21T12:55:17.663Z,1017.30
2019-04-21T12:56:17.734Z,1017.23
2019-04-21T12:57:17.144Z,1017.28
2019-04-21T12:58:17.280Z,1017.24
2019-04-21T12:59:16.931Z,1017.22
2019-04-21T13:00:16.596Z,1017.21
2019-04-21T13:01:16.780Z,1017.20
2019-04-21T13:02:17.798Z,1017.25
2019-04-21T13:03:17.444Z,1017.26
2019-04-21T13:04:17.704Z,1017.24
2019-04-21T13:05:17.767Z,1017.25
2019-04-21T13:06:16.532Z,1017.22
2019-04-21T13:07:17.390Z,1017.24
2019-04-21T13:08:17.704Z,1017.22
2019-04-21T13:09:18.706Z,1017.18
2019-04-21T13:10:16.485Z,1017.19